Peak Hill Post Office, Australia

2:59 PM AEDT on March 30, 2017 (GMT +1100)
Dubbo | | Change Station

Elev 902 ft 32.20 °S, 148.57 °E | Updated 8 minutes ago

Clear
Clear
72 °F
Feels Like 72 °F
N
18
Wind Variable Wind from SW
Gusts 30 mph

Today
High -- | Low -- °F
--% Chance of Precip.
Yesterday
High -- | Low -- °F
Precip. -- in
Pressure 29.83 in
Visibility 6.2 miles
Clouds Scattered Clouds 7600 ft
Overcast 8700 ft
Dew Point 50 °F
Humidity 46%
Rainfall 0.00 in
Snow Depth Not available.
7:17 AM 7:05 PM
Waxing Crescent, 6% visible
SPECI YSDU 300351Z AUTO 22016G26KT 9999 // SCT076 OVC087 22/10 Q1010
Pressure 29.83 in
Visibility 6.2 miles
Clouds Scattered Clouds 7600 ft
Overcast 8700 ft
Dew Point 50 °F
Humidity 46%
Rainfall 0.00 in
Snow Depth Not available.
7:17 AM 7:05 PM
Waxing Crescent, 6% visible
SPECI YSDU 300351Z AUTO 22016G26KT 9999 // SCT076 OVC087 22/10 Q1010

Get Severe Weather Alerts

Thanks for signing up!

Be on the lookout for a verification email in your inbox.

You'll start receiving the daily forecast at 8 AM.

×

10-Day Weather Forecast

×

Almanac

Astronomy

Mar. 30, 2017 Rise Set
Actual Time
Civil Twilight
Nautical Twilight
Astronomical Twilight
Moon
Length of Visible Light
Length of Day
Tomorrow will be .
, % of the Moon is Illuminated

Today's Extremes

Country Highs Country Lows

Community

WunderPhotos

Upload Photos

1,962,540 photos uploaded!

WunderBlog® & News

Nearby

Air Quality

  Air Quality AQ Index Pollutant
Not available.

Snow Depth

Station Depth Elevation

Earthquake Activity

City Distance Mag. Time & Date
Minimum magnitude displayed is 2.5.

Earthquake Activity

City Distance Mag. Time & Date
Minimum magnitude displayed is 2.5.

Coastal Water Temperatures

Place Temperature

Stations

Nearby Weather Stations

Station Location Temp. Windchill Dew Point Humidity Wind Precip. Elev Updated Type